Terminal Aerodrome Forecast
Issued by NWS

Home | Current Version | Previous Version | Text Only | Print | Product List | Glossary On
Versions: 1 2 3 4 5 6 7 8 9 10 11 12 13 14 15 16 17 18
000
FTUS45 KTFX 260520
TAFLWT
TAF
KLWT 260520Z 2606/2706 12006KT P6SM SCT070 BKN150
     FM261500 VRB06KT P6SM VCSH OVC045
      TEMPO 2616/2620 VRB15G35KT 6SM -TSRA BKN030CB OVC050
     FM262200 36006KT P6SM BKN070
     FM270100 06006KT P6SM SCT070 SCT180=

USA.gov is the U.S. government's official web portal to all federal, state and local government web resources and services.